Reinerton, Pennsylvania
Current Conditions -  °F | °C
As of 1:58 AM on Friday 28 Nov 2014 (Local Time) from KMUI Reporting Station
Scattered Clouds Scattered Clouds  
Wind Chill: 26°   Ceiling: Unl
Heat Index: 32°   Visibility: 10mi
Dew Point: 22°   Wind: 7mph
Humidity: 67%   Direction: 260°W
Pressure: 30.12"   Gusts: NA
Location:  40.5383°N, 76.6127°W
Report Text: KMUI 280658Z AUTO 26006KT 10SM SCT038 00/M05 A3012 RMK AO2 SLP207 T00021053 $
Loading
Personal Weather Stations






























Interactive Weather Map New forecast layout! Learn more

10-Day Weather Forecast

Advertisements
Track Severe Weather on mobile